Portada
METAR-TAF:

METAR-TAF

Aeroports :

Aeroport Internacional de Monastir

Monastir, Tunísia

latitud: 35-46N, longitud: 010-45E, altitud: 2 m

Observació

L'informe es va fer fa 16 minuts, a les 00:30 UTC
Vent 16 kt del Nord-Oest
Temperatura 13°C
Humitat 82%
Pressió 1012 hPa
Visibilitat: 6000 m
Núvols disperses a una alçada de 2000 ft
Núvols disperses a una alçada de 3000 ft

METAR: DTMB 040030Z 32016KT 6000 SCT020 SCT030 13/10 Q1012

Hora: 01:46 (00:46 UTC)

Pronòstic

L'informe es va fer fa 1 hora i 46 minuts, a les 23:00 UTC
Pronòstic vàlid del 04 a les 00 UTC al 04 a les 24 UTC
Vent 18 kt del Nord/Nord-Oest
Visibilitat: 6000 m
Núvols disperses a una alçada de 2000 ft
Núvols disperses a una alçada de 3000 ft
Evolucionant progressivament
l' 04 a les 00 UTC al 04 a les 02 UTC
Vent 15 kt del Nord/Nord-Oest amb ràfegues de 27 kt
Visibilitat: 8000 m
Núvols disperses a una alçada de 2000 ft

TAF: DTMB 032300Z 0400/0424 34018KT 6000 SCT020 SCT030 BECMG 0400/0402 34015G27KT 8000 SCT020

Observacions i pronòstics meteorològics de més de 4000 aeroports (METAR i TAF).

Les estacions disponibles són els punts grocs i vermells al mapa.

Posi el ratolí al punt desitjat per veure el nom de l'estació.

Feu clic per veure les observacions i els pronòstics meteorològics.

Per canviar el mapa: feu clic els botons verds amb una creu de color negre per apropar; al botó verd amb un guió per allunyar la imatge; o en les fletxes verdes per a mapes adjacents.


METAR-TAF: